Terminal Aerodrome Forecast
Issued by NWS

Home | Current Version | Previous Version | Text Only | Print | Product List | Glossary On
Versions: 1 2 3 4 5 6 7 8 9 10 11 12 13 14 15 16 17 18 19 20
000
FTUS43 KSGF 290500
TAFJLN
TAF
KJLN 290536Z 2906/3006 24013KT P6SM SCT250 WS019/30040KT
     FM290800 31012KT P6SM SKC
     FM291300 33014G25KT P6SM BKN015
     FM291800 34014G25KT P6SM BKN025
     FM300000 35007KT P6SM SKC=

USA.gov is the U.S. government's official web portal to all federal, state and local government web resources and services.